Terminal Aerodrome Forecast
Issued by NWS

Home | Current Version | Previous Version | Text Only | Print | Product List | Glossary On
Versions: 1 2 3 4 5 6 7 8 9 10 11 12 13 14 15 16 17 18 19 20 21 22 23
000
FTUS43 KDLH 031521 AAA
TAFBRD
TAF AMD
KBRD 031521Z 0315/0412 29008KT P6SM FEW015 SCT040
     FM031800 30010KT P6SM SCT050
     FM032200 32012KT P6SM VCSH BKN050
      TEMPO 0322/0402 6SM RA BKN035
     FM040200 VRB05KT P6SM SCT060=

USA.gov is the U.S. government's official web portal to all federal, state and local government web resources and services.